createdAt,value
2019-01-20T00:02:51.775Z,29.13
2019-01-20T00:07:54.687Z,25.40
2019-01-20T00:12:57.427Z,29.93
2019-01-20T00:17:59.384Z,24.67
2019-01-20T00:23:01.295Z,25.00
2019-01-20T00:28:03.405Z,26.37
2019-01-20T00:33:05.426Z,27.53
2019-01-20T00:38:07.360Z,23.53
2019-01-20T00:43:09.509Z,23.23
2019-01-20T00:48:11.556Z,25.83
2019-01-20T00:53:13.591Z,27.30
2019-01-20T00:58:15.698Z,24.27
2019-01-20T01:03:17.801Z,24.40
2019-01-20T01:08:19.827Z,26.63
2019-01-20T01:13:22.354Z,24.70
2019-01-20T01:18:24.375Z,27.53
2019-01-20T01:23:26.364Z,26.87
2019-01-20T01:28:28.292Z,24.03
2019-01-20T01:33:31.287Z,26.00
2019-01-20T01:38:33.308Z,26.13
2019-01-20T01:43:35.211Z,24.00
2019-01-20T01:48:37.377Z,25.43
2019-01-20T01:53:39.406Z,28.13
2019-01-20T01:58:41.455Z,24.63
2019-01-20T02:03:43.473Z,25.90
2019-01-20T02:08:45.502Z,27.20
2019-01-20T02:13:47.470Z,31.83
2019-01-20T02:18:49.377Z,28.27
2019-01-20T02:23:51.422Z,25.13
2019-01-20T02:28:53.313Z,23.53
2019-01-20T02:33:55.235Z,28.97
2019-01-20T02:38:57.256Z,24.77
2019-01-20T02:43:59.326Z,25.23
2019-01-20T02:49:02.347Z,27.87
2019-01-20T02:54:04.376Z,32.10
2019-01-20T02:59:06.512Z,25.47
2019-01-20T03:04:08.537Z,28.17
2019-01-20T03:09:10.551Z,26.77
2019-01-20T03:14:12.607Z,24.67
2019-01-20T03:19:14.751Z,33.83
2019-01-20T03:24:16.867Z,29.07
2019-01-20T03:29:18.774Z,28.90
2019-01-20T03:34:20.695Z,28.50
2019-01-20T03:39:22.640Z,27.83
2019-01-20T03:44:24.552Z,28.07
2019-01-20T03:49:26.538Z,27.90
2019-01-20T03:54:29.844Z,31.93
2019-01-20T03:59:31.916Z,32.03
2019-01-20T04:04:33.817Z,29.17
2019-01-20T04:09:35.752Z,31.87
2019-01-20T04:14:37.717Z,32.03
2019-01-20T04:19:39.866Z,29.37
2019-01-20T04:24:43.288Z,31.07
2019-01-20T04:29:45.204Z,27.27
2019-01-20T04:34:47.112Z,29.77
2019-01-20T04:39:49.302Z,30.73
2019-01-20T04:44:51.427Z,32.57
2019-01-20T04:49:53.372Z,32.07
2019-01-20T04:54:55.387Z,32.90
2019-01-20T04:59:57.524Z,33.70
2019-01-20T05:04:59.429Z,32.10
2019-01-20T05:10:04.487Z,32.03
2019-01-20T05:15:10.190Z,38.97
2019-01-20T05:20:12.533Z,32.73
2019-01-20T05:25:14.945Z,32.57
2019-01-20T05:30:19.369Z,33.00
2019-01-20T05:35:21.384Z,33.97
2019-01-20T05:40:24.726Z,34.13
2019-01-20T05:45:26.742Z,31.07
2019-01-20T05:50:28.789Z,39.87
2019-01-20T05:55:30.704Z,32.87
2019-01-20T06:00:33.287Z,33.40
2019-01-20T06:05:36.085Z,36.47
2019-01-20T06:10:38.028Z,41.07
2019-01-20T06:15:40.013Z,34.10
2019-01-20T06:20:42.014Z,36.73
2019-01-20T06:25:43.943Z,34.10
2019-01-20T06:30:45.871Z,32.80
2019-01-20T06:35:47.919Z,32.67
2019-01-20T06:40:49.846Z,33.30
2019-01-20T06:45:51.821Z,30.60
2019-01-20T06:50:53.877Z,32.57
2019-01-20T06:55:55.779Z,28.83
2019-01-20T07:00:57.762Z,36.50
2019-01-20T07:05:59.896Z,31.00
2019-01-20T07:11:01.852Z,35.20
2019-01-20T07:16:04.955Z,31.60
2019-01-20T07:21:06.857Z,37.87
2019-01-20T07:26:08.766Z,36.10
2019-01-20T07:31:10.714Z,38.50
2019-01-20T07:36:12.639Z,39.87
2019-01-20T07:41:14.579Z,40.77
2019-01-20T07:46:16.638Z,39.77
2019-01-20T07:51:18.704Z,37.87
2019-01-20T07:56:20.721Z,39.03
2019-01-20T08:01:22.786Z,41.00
2019-01-20T08:06:24.715Z,39.20
2019-01-20T08:11:26.619Z,39.10
2019-01-20T08:16:28.763Z,41.67
2019-01-20T08:21:31.139Z,40.30
2019-01-20T08:26:33.037Z,36.07
2019-01-20T08:31:34.950Z,42.97
2019-01-20T08:36:36.878Z,39.03
2019-01-20T08:41:38.861Z,47.03
2019-01-20T08:46:55.164Z,42.73
2019-01-20T08:51:57.133Z,43.80
2019-01-20T08:56:59.037Z,41.30
2019-01-20T09:02:00.979Z,36.47
2019-01-20T09:07:03.091Z,39.43
2019-01-20T09:12:05.089Z,35.27
2019-01-20T09:17:07.170Z,34.67
2019-01-20T09:22:09.175Z,34.20
2019-01-20T09:27:11.285Z,34.77
2019-01-20T09:32:13.491Z,35.30
2019-01-20T09:37:15.417Z,33.83
2019-01-20T09:42:17.353Z,36.60
2019-01-20T09:47:19.315Z,35.30
2019-01-20T09:52:21.261Z,37.47
2019-01-20T09:57:23.579Z,35.67
2019-01-20T10:02:25.496Z,35.53
2019-01-20T10:07:27.432Z,35.17
2019-01-20T10:12:29.348Z,33.93
2019-01-20T10:17:31.382Z,34.80
2019-01-20T10:22:33.396Z,36.57
2019-01-20T10:27:35.640Z,34.07
2019-01-20T10:32:37.947Z,31.50
2019-01-20T10:37:40.254Z,33.33
2019-01-20T10:42:42.259Z,30.20
2019-01-20T10:47:44.241Z,29.63
2019-01-20T10:52:46.380Z,28.60
2019-01-20T10:57:48.542Z,28.97
2019-01-20T11:02:50.558Z,29.23
2019-01-20T11:07:52.697Z,31.87
2019-01-20T11:12:54.999Z,28.13
2019-01-20T11:17:56.964Z,27.03
2019-01-20T11:22:58.974Z,57.33
2019-01-20T11:28:01.161Z,29.23
2019-01-20T11:33:03.746Z,30.43
2019-01-20T11:38:05.823Z,27.97
2019-01-20T11:43:08.613Z,29.00
2019-01-20T11:48:10.817Z,25.40
2019-01-20T11:53:12.926Z,28.10
2019-01-20T11:58:14.908Z,24.53
2019-01-20T12:03:16.905Z,29.37
2019-01-20T12:08:18.930Z,24.70
2019-01-20T12:13:26.462Z,24.27
2019-01-20T12:18:28.670Z,24.77
2019-01-20T12:23:30.563Z,23.37
2019-01-20T12:28:32.502Z,26.93
2019-01-20T12:33:34.510Z,22.80
2019-01-20T12:38:36.443Z,23.03
2019-01-20T12:43:38.453Z,24.47
2019-01-20T12:48:40.375Z,22.20
2019-01-20T12:53:42.419Z,25.03
2019-01-20T12:58:44.423Z,22.67
2019-01-20T13:03:47.455Z,23.53
2019-01-20T13:08:49.386Z,23.63
2019-01-20T13:13:51.397Z,26.30
2019-01-20T13:18:53.294Z,23.17
2019-01-20T13:23:55.276Z,22.47
2019-01-20T13:38:12.079Z,56.77
2019-01-20T13:48:14.210Z,22.50
2019-01-20T13:58:16.764Z,29.90
2019-01-20T14:08:19.116Z,31.47
2019-01-20T14:18:21.889Z,25.03
2019-01-20T14:28:24.215Z,27.93
2019-01-20T14:38:26.520Z,26.00
2019-01-20T14:48:28.773Z,24.07
2019-01-20T14:58:31.109Z,25.60
2019-01-20T15:08:33.088Z,25.93
2019-01-20T15:18:35.513Z,28.80
2019-01-20T15:28:37.804Z,25.27
2019-01-20T15:38:40.046Z,27.10
2019-01-20T15:48:42.547Z,60.93
2019-01-20T15:58:44.713Z,37.57
2019-01-20T16:08:46.984Z,28.07
2019-01-20T16:18:49.220Z,31.80
2019-01-20T16:28:51.612Z,33.13
2019-01-20T16:38:53.746Z,43.87
2019-01-20T16:48:55.847Z,71.63
2019-01-20T16:58:58.199Z,33.93
2019-01-20T17:09:00.436Z,44.63
2019-01-20T17:19:02.672Z,58.10
2019-01-20T17:29:05.100Z,39.73
2019-01-20T17:39:11.996Z,36.03
2019-01-20T17:49:13.949Z,41.67
2019-01-20T17:59:16.456Z,36.27
2019-01-20T18:09:18.522Z,37.77
2019-01-20T18:19:20.562Z,38.13
2019-01-20T18:29:22.927Z,43.33
2019-01-20T18:39:24.946Z,38.03
2019-01-20T18:49:26.983Z,42.37
2019-01-20T18:59:41.695Z,41.67
2019-01-20T19:09:43.742Z,43.37
2019-01-20T19:19:45.678Z,45.97
2019-01-20T19:29:48.897Z,47.47
2019-01-20T19:39:50.945Z,57.97
2019-01-20T19:49:52.947Z,52.70
2019-01-20T19:59:55.065Z,50.03
2019-01-20T20:09:57.035Z,71.77
2019-01-20T20:19:58.985Z,65.70
2019-01-20T20:30:01.114Z,58.17
2019-01-20T20:40:04.471Z,58.27
2019-01-20T20:50:08.552Z,52.80
2019-01-20T21:00:19.743Z,52.13
2019-01-20T21:10:22.202Z,54.93
2019-01-20T21:20:24.135Z,56.07
2019-01-20T21:30:26.388Z,58.97
2019-01-20T21:40:28.321Z,56.20
2019-01-20T21:50:30.491Z,50.07
2019-01-20T22:00:32.712Z,52.33
2019-01-20T22:10:34.724Z,55.30
2019-01-20T22:20:36.665Z,56.10
2019-01-20T22:30:39.776Z,62.10
2019-01-20T22:40:42.728Z,53.33
2019-01-20T22:50:44.916Z,56.27
2019-01-20T23:00:57.263Z,59.03
2019-01-20T23:11:00.626Z,59.33
2019-01-20T23:21:02.862Z,60.37
2019-01-20T23:31:04.859Z,58.07
2019-01-20T23:41:07.360Z,61.23
2019-01-20T23:51:09.408Z,69.50
